Time;durP1;ratioP1;P1;durP2;ratioP2;P2;SDS_P1;SDS_P2;PMS_P1;PMS_P2;Temp;Humidity;BMP_temperature;BMP_pressure;BME280_temperature;BME280_humidity;BME280_pressure;Samples;Min_cycle;Max_cycle;Signal;HPM_P1;HPM_P2
2023/05/23 00:02:12;;;;;;;6.95;2.90;;;;;;;;;;5071847;28;20067;-62
2023/05/23 00:04:38;;;;;;;;;;;;;;;;;;5061556;28;20420;-62
2023/05/23 00:07:05;;;;;;;7.03;3.50;;;;;;;;;;5072489;28;19978;-62
2023/05/23 00:09:31;;;;;;;4.65;2.60;;;;;;;;;;5073891;28;20053;-62
2023/05/23 00:11:58;;;;;;;4.22;2.17;;;;;;;;;;5073470;28;20072;-62
2023/05/23 00:14:24;;;;;;;5.13;2.20;;;;;;;;;;5074191;28;20048;-62
2023/05/23 00:16:51;;;;;;;3.63;2.40;;;;;;;;;;5074333;28;20049;-62
2023/05/23 00:19:17;;;;;;;5.07;2.47;;;;;;;;;;5074423;28;20079;-62
2023/05/23 00:21:48;;;;;;;6.07;2.40;;;;;;;;;;5074312;28;20048;-62
2023/05/23 00:24:17;;;;;;;4.35;2.35;;;;;;;;;;5073898;28;20488;-62
2023/05/23 00:26:44;;;;;;;4.55;2.28;;;;;;;;;;5074191;28;20389;-62
2023/05/23 00:29:17;;;;;;;5.78;2.35;;;;;;;;;;5073860;28;20487;-61
2023/05/23 00:31:45;;;;;;;5.28;1.92;;;;;;;;;;5074088;28;20134;-62
2023/05/23 00:34:13;;;;;;;4.47;2.30;;;;;;;;;;5074174;28;20040;-62
2023/05/23 00:36:40;;;;;;;4.90;2.25;;;;;;;;;;5074060;28;20102;-61
2023/05/23 00:39:07;;;;;;;4.68;2.20;;;;;;;;;;5073750;28;20048;-62
2023/05/23 00:41:35;;;;;;;5.23;2.03;;;;;;;;;;5073945;28;20126;-62
2023/05/23 00:44:02;;;;;;;4.03;1.77;;;;;;;;;;5073639;28;20131;-62
2023/05/23 00:46:29;;;;;;;6.38;2.50;;;;;;;;;;5073831;28;20044;-62
2023/05/23 00:48:56;;;;;;;6.03;2.20;;;;;;;;;;5073836;28;20074;-62
2023/05/23 00:51:23;;;;;;;8.65;2.53;;;;;;;;;;5073658;28;20434;-62
2023/05/23 00:53:49;;;;;;;5.63;2.50;;;;;;;;;;5066864;28;20057;-61
2023/05/23 00:56:16;;;;;;;5.68;2.28;;;;;;;;;;5067980;28;20540;-62
2023/05/23 00:58:43;;;;;;;5.97;2.00;;;;;;;;;;5073358;28;20056;-61
2023/05/23 01:01:10;;;;;;;6.57;2.55;;;;;;;;;;5073262;28;20495;-61
2023/05/23 01:03:36;;;;;;;5.82;2.60;;;;;;;;;;5073295;28;20048;-61
2023/05/23 01:06:03;;;;;;;7.10;2.30;;;;;;;;;;5073066;28;20405;-62
2023/05/23 01:08:29;;;;;;;8.98;2.85;;;;;;;;;;5073402;28;20048;-62
2023/05/23 01:10:59;;;;;;;7.32;2.38;;;;;;;;;;5073056;28;20057;-62
2023/05/23 01:13:31;;;;;;;6.38;2.42;;;;;;;;;;5072871;28;20052;-62
2023/05/23 01:15:58;;;;;;;7.10;2.83;;;;;;;;;;5073267;28;20121;-62
2023/05/23 01:18:37;;;;;;;8.63;2.70;;;;;;;;;;5073341;28;20048;-62
2023/05/23 01:21:16;;;;;;;8.00;2.75;;;;;;;;;;5073217;28;20143;-62
2023/05/23 01:23:46;;;;;;;6.78;2.60;;;;;;;;;;5073296;28;20462;-62
2023/05/23 01:26:48;;;;;;;6.85;3.10;;;;;;;;;;5072770;28;20048;-62
2023/05/23 01:29:19;;;;;;;7.68;2.50;;;;;;;;;;5030385;28;20049;-62
2023/05/23 01:31:48;;;;;;;6.10;2.70;;;;;;;;;;5065611;28;20094;-62
2023/05/23 01:34:15;;;;;;;6.97;2.55;;;;;;;;;;5072871;28;20048;-62
2023/05/23 01:36:43;;;;;;;6.72;2.50;;;;;;;;;;5072530;28;20059;-62
2023/05/23 01:39:10;;;;;;;6.88;2.40;;;;;;;;;;5072553;28;20495;-62
2023/05/23 01:41:36;;;;;;;6.20;2.55;;;;;;;;;;5072751;28;20053;-62
2023/05/23 01:44:03;;;;;;;7.25;2.75;;;;;;;;;;5072456;28;20045;-62
2023/05/23 01:46:31;;;;;;;6.40;2.47;;;;;;;;;;5072573;28;20102;-62
2023/05/23 01:48:58;;;;;;;5.97;2.53;;;;;;;;;;5071370;28;20289;-62
2023/05/23 01:51:26;;;;;;;4.97;2.35;;;;;;;;;;5072377;28;20384;-62
2023/05/23 01:53:52;;;;;;;6.70;2.97;;;;;;;;;;5065337;28;20053;-62
2023/05/23 01:56:19;;;;;;;4.97;2.40;;;;;;;;;;5067507;28;20080;-62
2023/05/23 01:58:46;;;;;;;4.10;2.67;;;;;;;;;;5072723;28;20053;-62
2023/05/23 02:01:12;;;;;;;6.78;2.30;;;;;;;;;;5072401;28;20335;-62
2023/05/23 02:03:39;;;;;;;5.72;2.85;;;;;;;;;;5072253;28;20055;-62
2023/05/23 02:06:05;;;;;;;5.53;2.20;;;;;;;;;;5071553;28;20060;-62
2023/05/23 02:08:32;;;;;;;5.05;2.70;;;;;;;;;;5071874;28;20086;-62
2023/05/23 02:10:59;;;;;;;6.15;2.90;;;;;;;;;;5071939;28;20044;-62
2023/05/23 02:13:26;;;;;;;6.68;2.60;;;;;;;;;;5072066;28;20041;-62
2023/05/23 02:15:52;;;;;;;7.25;2.95;;;;;;;;;;5064123;28;20095;-62
2023/05/23 02:18:19;;;;;;;8.40;2.50;;;;;;;;;;5066134;28;20122;-62
2023/05/23 02:20:45;;;;;;;8.80;3.33;;;;;;;;;;5071847;28;20045;-61
2023/05/23 02:23:12;;;;;;;8.38;2.92;;;;;;;;;;5072116;28;20114;-62
2023/05/23 02:25:38;;;;;;;6.15;2.80;;;;;;;;;;5072020;28;20056;-62
2023/05/23 02:28:05;;;;;;;8.32;3.00;;;;;;;;;;5071745;28;20110;-62
2023/05/23 02:30:31;;;;;;;6.47;3.15;;;;;;;;;;5071994;28;20458;-62
2023/05/23 02:32:58;;;;;;;6.82;2.95;;;;;;;;;;5071724;28;20072;-61
2023/05/23 02:35:24;;;;;;;7.78;2.65;;;;;;;;;;5071728;28;20499;-62
2023/05/23 02:37:51;;;;;;;5.35;2.50;;;;;;;;;;5071612;28;20040;-61
2023/05/23 02:40:17;;;;;;;6.32;2.70;;;;;;;;;;5071619;28;20048;-62
2023/05/23 02:42:44;;;;;;;7.93;2.75;;;;;;;;;;5071753;28;20113;-62
2023/05/23 02:45:10;;;;;;;4.97;2.25;;;;;;;;;;5071586;28;20098;-62
2023/05/23 02:47:36;;;;;;;6.50;2.67;;;;;;;;;;5071582;28;20048;-62
2023/05/23 02:50:04;;;;;;;7.20;2.50;;;;;;;;;;5071619;28;20125;-61
2023/05/23 02:52:31;;;;;;;6.82;3.58;;;;;;;;;;5071624;28;20090;-62
2023/05/23 02:54:57;;;;;;;5.95;2.85;;;;;;;;;;5059006;28;20388;-62
2023/05/23 02:57:24;;;;;;;7.50;2.40;;;;;;;;;;5072026;28;20385;-61
2023/05/23 02:59:50;;;;;;;6.00;2.22;;;;;;;;;;5071640;28;20123;-62
2023/05/23 03:02:17;;;;;;;6.57;3.05;;;;;;;;;;5071711;28;20408;-62
2023/05/23 03:04:43;;;;;;;9.10;3.30;;;;;;;;;;5071253;28;20365;-62
2023/05/23 03:07:11;;;;;;;7.30;2.60;;;;;;;;;;5071751;28;20079;-62
2023/05/23 03:09:53;;;;;;;6.60;3.13;;;;;;;;;;5071584;28;20059;-62
2023/05/23 03:12:19;;;;;;;5.90;2.65;;;;;;;;;;5071302;28;20058;-62
2023/05/23 03:14:46;;;;;;;5.70;2.60;;;;;;;;;;5071594;28;20084;-61
2023/05/23 03:17:13;;;;;;;6.40;2.80;;;;;;;;;;5070827;28;20438;-62
2023/05/23 03:19:39;;;;;;;6.63;2.90;;;;;;;;;;5067777;28;20361;-61
2023/05/23 03:22:06;;;;;;;6.82;2.78;;;;;;;;;;5075391;28;20044;-62
2023/05/23 03:24:32;;;;;;;6.95;2.60;;;;;;;;;;5075744;28;20083;-62
2023/05/23 03:27:00;;;;;;;7.82;3.10;;;;;;;;;;5075332;28;20094;-62
2023/05/23 03:29:26;;;;;;;9.20;2.90;;;;;;;;;;5075243;28;20053;-62
2023/05/23 03:31:53;;;;;;;7.15;3.13;;;;;;;;;;5074848;28;20507;-62
2023/05/23 03:34:19;;;;;;;6.97;2.35;;;;;;;;;;5074996;28;20108;-62
2023/05/23 03:36:45;;;;;;;7.65;2.90;;;;;;;;;;5074732;28;20090;-61
2023/05/23 03:39:12;;;;;;;5.90;2.47;;;;;;;;;;5075130;28;20044;-62
2023/05/23 03:41:38;;;;;;;4.72;2.42;;;;;;;;;;5074947;28;20110;-62
2023/05/23 03:44:05;;;;;;;5.82;2.53;;;;;;;;;;5075180;28;20044;-61
2023/05/23 03:46:31;;;;;;;13.57;3.45;;;;;;;;;;5074781;28;20083;-62
2023/05/23 03:48:58;;;;;;;7.22;2.70;;;;;;;;;;5074879;28;20056;-62
2023/05/23 03:51:24;;;;;;;6.78;2.45;;;;;;;;;;5074829;28;20049;-61
2023/05/23 03:53:51;;;;;;;4.90;2.70;;;;;;;;;;5070279;28;20072;-62
2023/05/23 03:56:17;;;;;;;6.43;2.95;;;;;;;;;;5074869;28;20083;-62
2023/05/23 03:58:44;;;;;;;6.55;2.83;;;;;;;;;;5074418;28;20052;-62
2023/05/23 04:01:11;;;;;;;7.00;3.20;;;;;;;;;;5075041;28;20044;-62
2023/05/23 04:03:37;;;;;;;7.78;2.92;;;;;;;;;;5074486;28;20331;-62
2023/05/23 04:06:04;;;;;;;9.27;3.30;;;;;;;;;;5074086;28;21111;-61
2023/05/23 04:08:32;;;;;;;7.03;2.90;;;;;;;;;;5074247;28;20416;-62
2023/05/23 04:11:00;;;;;;;7.72;4.30;;;;;;;;;;5074527;28;20059;-62
2023/05/23 04:13:27;;;;;;;9.35;3.75;;;;;;;;;;5074485;28;20052;-62
2023/05/23 04:15:56;;;;;;;9.40;4.60;;;;;;;;;;5074392;28;20469;-62
2023/05/23 04:18:23;;;;;;;11.30;4.90;;;;;;;;;;5074141;28;20491;-62
2023/05/23 04:20:49;;;;;;;9.10;4.57;;;;;;;;;;5074260;28;20094;-62
2023/05/23 04:23:15;;;;;;;13.82;4.90;;;;;;;;;;5074107;28;20088;-62
2023/05/23 04:25:42;;;;;;;8.50;4.65;;;;;;;;;;5074142;28;20080;-62
2023/05/23 04:28:09;;;;;;;8.02;4.40;;;;;;;;;;5074209;28;20054;-62
2023/05/23 04:30:36;;;;;;;9.35;4.30;;;;;;;;;;5073521;28;20527;-62
2023/05/23 04:33:02;;;;;;;8.75;4.50;;;;;;;;;;5074296;28;20090;-62
2023/05/23 04:35:32;;;;;;;7.93;3.85;;;;;;;;;;5073817;28;20074;-61
2023/05/23 04:38:00;;;;;;;7.43;4.15;;;;;;;;;;5073696;28;20539;-62
2023/05/23 04:40:27;;;;;;;10.38;4.32;;;;;;;;;;5073996;28;20048;-62
2023/05/23 04:42:54;;;;;;;12.60;4.32;;;;;;;;;;5074020;28;20086;-61
2023/05/23 04:45:20;;;;;;;9.20;4.65;;;;;;;;;;5073935;28;20080;-62
2023/05/23 04:47:47;;;;;;;9.65;3.80;;;;;;;;;;5073605;28;20091;-61
2023/05/23 04:50:13;;;;;;;9.23;3.88;;;;;;;;;;5073743;28;20048;-62
2023/05/23 04:52:40;;;;;;;10.52;4.50;;;;;;;;;;5073460;28;20052;-61
2023/05/23 04:55:07;;;;;;;12.38;4.28;;;;;;;;;;5071984;28;20041;-62
2023/05/23 04:57:34;;;;;;;9.85;4.13;;;;;;;;;;5073765;28;20530;-62
2023/05/23 05:00:01;;;;;;;10.55;3.85;;;;;;;;;;5073254;28;20550;-62
2023/05/23 05:02:27;;;;;;;7.07;3.63;;;;;;;;;;5073246;28;20434;-62
2023/05/23 05:04:53;;;;;;;10.55;4.25;;;;;;;;;;5073248;28;20056;-62
2023/05/23 05:07:20;;;;;;;9.60;3.97;;;;;;;;;;5073449;28;20110;-61
2023/05/23 05:09:46;;;;;;;10.05;3.75;;;;;;;;;;5073495;28;20099;-62
2023/05/23 05:12:13;;;;;;;10.77;3.35;;;;;;;;;;5073371;28;20048;-62
2023/05/23 05:14:39;;;;;;;9.13;4.43;;;;;;;;;;5073316;28;20040;-62
2023/05/23 05:17:05;;;;;;;10.25;3.70;;;;;;;;;;5073242;28;20133;-61
2023/05/23 05:19:32;;;;;;;9.20;4.15;;;;;;;;;;5073285;28;20063;-62
2023/05/23 05:22:00;;;;;;;11.40;4.75;;;;;;;;;;5060125;28;20149;-62
2023/05/23 05:24:26;;;;;;;9.15;4.57;;;;;;;;;;5072507;28;20045;-62
2023/05/23 05:26:53;;;;;;;12.85;4.22;;;;;;;;;;5072754;28;20051;-62
2023/05/23 05:29:20;;;;;;;10.57;4.05;;;;;;;;;;5072815;28;20048;-62
2023/05/23 05:31:46;;;;;;;8.27;3.80;;;;;;;;;;5068121;28;20041;-62
2023/05/23 05:34:12;;;;;;;7.95;3.53;;;;;;;;;;5064819;28;20094;-61
2023/05/23 05:36:45;;;;;;;7.70;3.67;;;;;;;;;;5072556;28;20549;-61
2023/05/23 05:39:13;;;;;;;11.00;3.72;;;;;;;;;;5072871;28;20442;-62
2023/05/23 05:41:39;;;;;;;12.98;4.20;;;;;;;;;;5071682;28;20094;-62
2023/05/23 05:44:06;;;;;;;7.85;3.65;;;;;;;;;;5072784;28;20129;-62
2023/05/23 05:46:32;;;;;;;8.98;4.03;;;;;;;;;;5072550;28;20125;-62
2023/05/23 05:48:59;;;;;;;10.57;3.85;;;;;;;;;;5072371;28;20040;-62
2023/05/23 05:51:25;;;;;;;11.85;4.57;;;;;;;;;;5072642;28;20052;-62
2023/05/23 05:53:51;;;;;;;10.50;4.00;;;;;;;;;;5070711;28;20052;-62
2023/05/23 05:56:18;;;;;;;11.77;4.78;;;;;;;;;;5072189;28;20094;-61
2023/05/23 05:58:45;;;;;;;7.60;3.63;;;;;;;;;;5072429;28;20048;-61
2023/05/23 06:01:12;;;;;;;16.75;4.68;;;;;;;;;;5072516;28;20098;-62
2023/05/23 06:03:38;;;;;;;8.80;4.30;;;;;;;;;;5072340;28;20048;-62
2023/05/23 06:06:05;;;;;;;12.38;4.70;;;;;;;;;;5057386;28;20063;-62
2023/05/23 06:08:32;;;;;;;11.07;4.32;;;;;;;;;;5072102;28;20075;-62
2023/05/23 06:10:58;;;;;;;9.27;4.03;;;;;;;;;;5071856;28;20504;-62
2023/05/23 06:13:25;;;;;;;9.18;4.10;;;;;;;;;;5072143;28;20098;-62
2023/05/23 06:15:51;;;;;;;9.45;4.53;;;;;;;;;;5072042;28;20053;-65
2023/05/23 06:18:17;;;;;;;8.60;4.60;;;;;;;;;;5072141;28;20051;-63
2023/05/23 06:20:44;;;;;;;11.27;4.22;;;;;;;;;;5072151;28;20393;-62
2023/05/23 06:23:10;;;;;;;11.02;3.90;;;;;;;;;;5072077;28;20049;-63
2023/05/23 06:25:37;;;;;;;10.20;4.30;;;;;;;;;;5061402;28;20127;-62
2023/05/23 06:28:03;;;;;;;8.85;4.80;;;;;;;;;;5069135;28;20109;-63
2023/05/23 06:30:29;;;;;;;8.43;3.75;;;;;;;;;;5071919;28;20048;-62
2023/05/23 06:32:56;;;;;;;9.07;3.97;;;;;;;;;;5071862;28;20067;-63
2023/05/23 06:35:23;;;;;;;7.75;3.50;;;;;;;;;;5072001;28;20189;-63
2023/05/23 06:37:49;;;;;;;9.00;3.58;;;;;;;;;;5057339;28;20404;-63
2023/05/23 06:40:16;;;;;;;10.55;4.00;;;;;;;;;;5071885;28;20451;-63
2023/05/23 06:42:42;;;;;;;7.35;3.70;;;;;;;;;;5058235;28;20049;-63
2023/05/23 06:45:09;;;;;;;7.47;3.50;;;;;;;;;;5061049;28;20056;-62
2023/05/23 06:47:35;;;;;;;7.27;3.80;;;;;;;;;;5071799;28;20086;-62
2023/05/23 06:50:02;;;;;;;8.17;3.83;;;;;;;;;;5072166;28;20189;-62
2023/05/23 06:52:28;;;;;;;7.85;3.47;;;;;;;;;;5071666;28;20048;-63
2023/05/23 06:54:55;;;;;;;7.78;3.80;;;;;;;;;;5061253;28;20087;-62
2023/05/23 06:57:21;;;;;;;7.32;3.58;;;;;;;;;;5071621;28;20052;-62
2023/05/23 06:59:48;;;;;;;7.05;3.30;;;;;;;;;;5056854;28;20044;-62
2023/05/23 07:02:14;;;;;;;7.10;3.50;;;;;;;;;;5064350;28;20098;-61
2023/05/23 07:04:40;;;;;;;7.97;3.72;;;;;;;;;;5064640;28;20048;-62
2023/05/23 07:07:07;;;;;;;7.22;3.75;;;;;;;;;;5071227;28;20041;-62
2023/05/23 07:09:33;;;;;;;5.40;3.20;;;;;;;;;;5071630;28;20056;-62
2023/05/23 07:12:00;;;;;;;6.05;3.53;;;;;;;;;;5053703;28;20500;-62
2023/05/23 07:14:26;;;;;;;6.40;3.00;;;;;;;;;;5043765;28;20044;-62
2023/05/23 07:16:52;;;;;;;9.20;3.50;;;;;;;;;;5071600;28;20095;-62
2023/05/23 07:19:19;;;;;;;5.47;3.10;;;;;;;;;;5071304;28;20100;-62
2023/05/23 07:21:46;;;;;;;8.07;3.15;;;;;;;;;;5071110;28;20496;-63
2023/05/23 07:24:12;;;;;;;7.22;3.10;;;;;;;;;;5071451;28;20457;-63
2023/05/23 07:26:38;;;;;;;4.55;3.05;;;;;;;;;;5071325;28;20113;-62
2023/05/23 07:29:05;;;;;;;8.95;3.38;;;;;;;;;;5071393;28;20056;-62
2023/05/23 07:31:32;;;;;;;6.25;3.33;;;;;;;;;;5071101;28;20182;-62
2023/05/23 07:33:58;;;;;;;4.85;2.92;;;;;;;;;;5071074;28;20105;-63
2023/05/23 07:36:26;;;;;;;7.63;3.25;;;;;;;;;;5071001;28;20052;-62
2023/05/23 07:38:52;;;;;;;5.07;2.85;;;;;;;;;;5071254;28;20067;-62
2023/05/23 07:41:19;;;;;;;6.18;3.20;;;;;;;;;;5056700;28;20048;-63
2023/05/23 07:43:46;;;;;;;5.35;2.53;;;;;;;;;;5070313;28;20060;-62
2023/05/23 07:46:12;;;;;;;7.38;2.72;;;;;;;;;;5057733;28;20076;-62
2023/05/23 07:48:38;;;;;;;6.80;2.80;;;;;;;;;;5063695;28;20053;-62
2023/05/23 07:51:05;;;;;;;7.75;3.08;;;;;;;;;;5063997;28;20076;-62
2023/05/23 07:53:31;;;;;;;6.07;2.60;;;;;;;;;;5058686;28;20370;-62
2023/05/23 07:55:58;;;;;;;4.60;2.92;;;;;;;;;;5069490;28;20048;-62
2023/05/23 07:58:24;;;;;;;5.15;2.47;;;;;;;;;;5050188;28;20416;-62
2023/05/23 08:00:50;;;;;;;5.05;2.78;;;;;;;;;;5062500;28;20048;-62
2023/05/23 08:03:18;;;;;;;6.28;2.60;;;;;;;;;;5055208;28;20057;-62
2023/05/23 08:05:45;;;;;;;7.03;3.10;;;;;;;;;;5070670;28;20060;-62
2023/05/23 08:08:12;;;;;;;6.53;2.90;;;;;;;;;;5072633;28;20053;-62
2023/05/23 08:10:38;;;;;;;5.57;3.13;;;;;;;;;;5073850;28;20071;-62
2023/05/23 08:13:06;;;;;;;5.22;2.90;;;;;;;;;;5063527;28;20060;-62
2023/05/23 08:15:33;;;;;;;4.60;2.60;;;;;;;;;;5054135;28;20190;-62
2023/05/23 08:17:59;;;;;;;3.30;2.55;;;;;;;;;;5061795;28;20049;-62
2023/05/23 08:20:29;;;;;;;5.25;2.50;;;;;;;;;;5059238;28;20435;-62
2023/05/23 08:23:00;;;;;;;4.18;2.95;;;;;;;;;;5069846;28;20072;-62
2023/05/23 08:25:30;;;;;;;5.40;2.50;;;;;;;;;;5074379;28;20091;-62
2023/05/23 08:27:57;;;;;;;4.80;2.55;;;;;;;;;;5069966;28;20049;-62
2023/05/23 08:30:24;;;;;;;6.53;2.65;;;;;;;;;;5074101;28;20041;-62
2023/05/23 08:32:52;;;;;;;4.07;2.45;;;;;;;;;;5059567;28;20110;-62
2023/05/23 08:35:18;;;;;;;5.97;2.58;;;;;;;;;;5073910;28;20040;-62
2023/05/23 08:37:48;;;;;;;4.20;2.70;;;;;;;;;;5073834;28;20506;-62
2023/05/23 08:40:19;;;;;;;5.03;2.70;;;;;;;;;;5066807;28;20045;-61
2023/05/23 08:42:47;;;;;;;5.38;2.72;;;;;;;;;;5061789;28;20072;-61
2023/05/23 08:45:14;;;;;;;6.00;2.65;;;;;;;;;;5073871;28;20055;-61
2023/05/23 08:47:41;;;;;;;;;;;;;;;;;;5074372;28;20052;-61
2023/05/23 08:50:09;;;;;;;4.25;2.58;;;;;;;;;;5073918;28;19931;-61
2023/05/23 08:52:40;;;;;;;5.47;2.92;;;;;;;;;;5073590;28;20052;-61
2023/05/23 08:55:07;;;;;;;8.07;3.17;;;;;;;;;;5067954;28;20052;-61
2023/05/23 08:57:34;;;;;;;5.88;2.65;;;;;;;;;;5073632;28;20053;-61
2023/05/23 09:00:02;;;;;;;4.82;2.40;;;;;;;;;;5064759;28;20511;-61
2023/05/23 09:02:31;;;;;;;5.35;2.63;;;;;;;;;;5066793;28;20074;-61
2023/05/23 09:04:58;;;;;;;4.28;2.67;;;;;;;;;;5060513;28;20056;-62
2023/05/23 09:07:25;;;;;;;5.10;2.40;;;;;;;;;;5073298;28;20056;-61
2023/05/23 09:09:52;;;;;;;6.88;2.70;;;;;;;;;;5073408;28;20049;-61
2023/05/23 09:12:21;;;;;;;6.60;2.83;;;;;;;;;;5073470;28;20049;-62
2023/05/23 09:14:47;;;;;;;5.47;2.75;;;;;;;;;;5073004;28;20132;-61
2023/05/23 09:17:17;;;;;;;3.90;2.27;;;;;;;;;;5071915;28;20508;-61
2023/05/23 09:19:45;;;;;;;4.50;2.40;;;;;;;;;;5073062;28;20045;-61
2023/05/23 09:22:11;;;;;;;6.28;2.67;;;;;;;;;;5072936;28;20044;-61
2023/05/23 09:24:38;;;;;;;3.95;2.33;;;;;;;;;;5058563;28;20048;-61
2023/05/23 09:27:05;;;;;;;5.63;2.30;;;;;;;;;;5073094;28;20450;-61
2023/05/23 09:29:32;;;;;;;4.22;2.20;;;;;;;;;;5072942;28;20092;-61
2023/05/23 09:31:59;;;;;;;3.57;2.33;;;;;;;;;;5072755;28;20454;-61
2023/05/23 09:34:27;;;;;;;2.42;1.98;;;;;;;;;;5072712;28;20163;-62
2023/05/23 09:36:54;;;;;;;5.10;2.42;;;;;;;;;;5072912;28;20045;-61
2023/05/23 09:39:20;;;;;;;6.10;2.47;;;;;;;;;;5055281;28;20049;-61
2023/05/23 09:41:47;;;;;;;5.80;2.30;;;;;;;;;;5052706;28;20056;-61
2023/05/23 09:44:21;;;;;;;6.88;2.88;;;;;;;;;;5052063;28;20094;-61
2023/05/23 09:46:51;;;;;;;3.47;2.22;;;;;;;;;;5052546;28;20076;-61
2023/05/23 09:49:18;;;;;;;4.75;2.50;;;;;;;;;;5052945;28;20044;-62
2023/05/23 09:51:56;;;;;;;2.90;2.00;;;;;;;;;;5064029;28;20079;-61
2023/05/23 09:54:22;;;;;;;3.47;2.60;;;;;;;;;;5066565;28;20090;-61
2023/05/23 09:56:51;;;;;;;6.82;2.10;;;;;;;;;;5072435;28;20476;-61
2023/05/23 09:59:23;;;;;;;4.40;2.53;;;;;;;;;;5062849;28;20036;-61
2023/05/23 10:01:50;;;;;;;5.13;2.20;;;;;;;;;;5072482;28;20041;-61
2023/05/23 10:04:20;;;;;;;5.43;2.78;;;;;;;;;;5072028;28;20044;-61
2023/05/23 10:06:49;;;;;;;5.20;2.40;;;;;;;;;;5072394;28;20064;-61
2023/05/23 10:09:16;;;;;;;4.88;2.50;;;;;;;;;;5062375;28;20106;-61
2023/05/23 10:11:58;;;;;;;3.15;2.10;;;;;;;;;;5059769;28;20061;-61
2023/05/23 10:14:26;;;;;;;3.13;2.15;;;;;;;;;;5067824;28;20408;-61
2023/05/23 10:16:55;;;;;;;3.90;2.70;;;;;;;;;;5071886;28;20048;-61
2023/05/23 10:19:34;;;;;;;6.65;2.70;;;;;;;;;;5072119;28;20181;-62
2023/05/23 10:22:03;;;;;;;3.83;2.35;;;;;;;;;;5071989;28;20044;-61
2023/05/23 10:24:30;;;;;;;5.22;2.92;;;;;;;;;;5061539;28;20055;-61
2023/05/23 10:26:57;;;;;;;4.22;2.45;;;;;;;;;;5058716;28;20076;-61
2023/05/23 10:29:23;;;;;;;5.05;2.97;;;;;;;;;;5054129;28;20083;-61
2023/05/23 10:31:51;;;;;;;5.22;2.58;;;;;;;;;;5057283;28;20060;-62
2023/05/23 10:34:17;;;;;;;;;;;;;;;;;;5072209;28;20098;-61
2023/05/23 10:37:05;;;;;;;5.95;2.80;;;;;;;;;;5069664;28;19982;-62
2023/05/23 10:39:35;;;;;;;4.20;2.50;;;;;;;;;;5071780;28;20048;-61
2023/05/23 10:42:03;;;;;;;3.88;2.65;;;;;;;;;;5057201;28;20113;-61
2023/05/23 10:44:30;;;;;;;5.65;2.88;;;;;;;;;;5071735;28;20052;-61
2023/05/23 10:47:00;;;;;;;4.28;2.30;;;;;;;;;;5071663;28;20049;-61
2023/05/23 10:49:38;;;;;;;3.35;2.10;;;;;;;;;;5060284;28;20053;-61
2023/05/23 10:52:06;;;;;;;8.80;2.53;;;;;;;;;;5070221;28;20044;-61
2023/05/23 10:54:40;;;;;;;3.15;2.30;;;;;;;;;;5069558;28;20051;-61
2023/05/23 10:57:09;;;;;;;3.80;2.50;;;;;;;;;;5071478;28;20483;-61
2023/05/23 10:59:36;;;;;;;4.57;2.50;;;;;;;;;;5071461;28;20492;-62
2023/05/23 11:02:04;;;;;;;7.22;5.13;;;;;;;;;;5057538;28;20500;-62
2023/05/23 11:04:30;;;;;;;5.28;2.83;;;;;;;;;;5060698;28;20159;-62
2023/05/23 11:06:57;;;;;;;15.75;14.02;;;;;;;;;;5071259;28;20056;-62
2023/05/23 11:09:23;;;;;;;6.00;2.40;;;;;;;;;;5057709;28;20057;-62
2023/05/23 11:11:53;;;;;;;4.07;3.13;;;;;;;;;;5071185;28;20362;-62
2023/05/23 11:14:30;;;;;;;3.17;2.53;;;;;;;;;;5071555;28;20075;-62
2023/05/23 11:16:57;;;;;;;3.15;2.35;;;;;;;;;;5071838;28;20404;-61
2023/05/23 11:19:26;;;;;;;4.25;2.60;;;;;;;;;;5071221;28;20446;-62
2023/05/23 11:22:01;;;;;;;5.25;2.88;;;;;;;;;;5071218;28;20045;-62
2023/05/23 11:24:46;;;;;;;4.47;2.67;;;;;;;;;;5071382;28;20060;-62
2023/05/23 11:27:12;;;;;;;3.75;2.90;;;;;;;;;;5051751;28;20052;-62
2023/05/23 11:29:39;;;;;;;3.13;2.50;;;;;;;;;;5071021;28;20056;-61
2023/05/23 11:32:09;;;;;;;4.43;2.70;;;;;;;;;;5071550;28;20052;-61
2023/05/23 11:34:42;;;;;;;3.97;2.55;;;;;;;;;;5071034;28;20044;-61
2023/05/23 11:37:10;;;;;;;5.03;2.90;;;;;;;;;;5071323;28;20049;-61
2023/05/23 11:39:37;;;;;;;4.85;3.10;;;;;;;;;;5071566;28;20102;-61
2023/05/23 11:42:03;;;;;;;5.07;2.90;;;;;;;;;;5075215;28;20045;-62
2023/05/23 11:44:30;;;;;;;5.33;2.87;;;;;;;;;;5063512;28;20095;-62
2023/05/23 11:47:03;;;;;;;3.93;2.97;;;;;;;;;;5070622;28;20346;-61
2023/05/23 11:49:30;;;;;;;3.38;2.85;;;;;;;;;;5053744;28;20068;-61
2023/05/23 11:51:58;;;;;;;4.97;3.00;;;;;;;;;;5070625;28;20056;-62
2023/05/23 11:54:25;;;;;;;4.28;3.28;;;;;;;;;;5071133;28;20052;-62
2023/05/23 11:56:51;;;;;;;3.90;2.70;;;;;;;;;;5074478;28;20484;-62
2023/05/23 11:59:18;;;;;;;5.40;2.87;;;;;;;;;;5072531;28;20076;-61
2023/05/23 12:01:44;;;;;;;3.20;2.50;;;;;;;;;;5062484;28;20825;-62
2023/05/23 12:04:11;;;;;;;3.67;2.90;;;;;;;;;;5074521;28;20049;-62
2023/05/23 12:06:40;;;;;;;4.47;2.90;;;;;;;;;;5074310;28;20048;-61
2023/05/23 12:09:10;;;;;;;3.78;2.90;;;;;;;;;;5074674;28;20113;-62
2023/05/23 12:11:37;;;;;;;4.25;3.28;;;;;;;;;;5074776;28;20052;-62
2023/05/23 12:14:05;;;;;;;3.63;2.90;;;;;;;;;;5069720;28;20041;-63
2023/05/23 12:16:32;;;;;;;3.70;2.83;;;;;;;;;;5054373;28;20056;-64
2023/05/23 12:19:03;;;;;;;4.35;2.70;;;;;;;;;;5054178;28;20055;-64
2023/05/23 12:21:42;;;;;;;4.00;2.95;;;;;;;;;;5053849;28;20055;-64
2023/05/23 12:24:17;;;;;;;4.03;2.80;;;;;;;;;;5054047;28;20084;-64
2023/05/23 12:26:51;;;;;;;3.53;2.65;;;;;;;;;;5060258;28;20557;-63
2023/05/23 12:29:18;;;;;;;4.57;2.83;;;;;;;;;;5074172;28;20450;-64
2023/05/23 12:31:47;;;;;;;4.38;2.70;;;;;;;;;;5070029;28;20103;-64
2023/05/23 12:34:13;;;;;;;5.72;2.70;;;;;;;;;;5061542;28;20091;-64
2023/05/23 12:36:41;;;;;;;4.55;2.80;;;;;;;;;;5057445;28;20093;-64
2023/05/23 12:39:15;;;;;;;5.43;2.80;;;;;;;;;;5073780;28;20049;-64
2023/05/23 12:41:42;;;;;;;4.05;3.20;;;;;;;;;;5073809;28;20097;-64
2023/05/23 12:44:09;;;;;;;4.13;3.10;;;;;;;;;;5073872;28;20098;-62
2023/05/23 12:46:35;;;;;;;;;;;;;;;;;;5074346;28;20102;-63
2023/05/23 12:49:02;;;;;;;;;;;;;;;;;;5064233;28;19931;-63
2023/05/23 12:51:28;;;;;;;5.50;3.25;;;;;;;;;;5053694;28;19966;-63
2023/05/23 12:53:55;;;;;;;4.60;3.40;;;;;;;;;;5053441;28;20053;-63
2023/05/23 12:56:22;;;;;;;3.75;2.97;;;;;;;;;;5059131;28;20082;-63
2023/05/23 12:58:48;;;;;;;5.57;3.33;;;;;;;;;;5060879;28;20044;-64
2023/05/23 13:01:15;;;;;;;4.68;3.30;;;;;;;;;;5060056;28;20040;-63
2023/05/23 13:03:41;;;;;;;4.50;3.53;;;;;;;;;;5071822;28;20538;-63
2023/05/23 13:06:08;;;;;;;4.90;3.50;;;;;;;;;;5057468;28;20084;-63
2023/05/23 13:08:34;;;;;;;5.57;3.17;;;;;;;;;;5073405;28;20106;-63
2023/05/23 13:11:01;;;;;;;;;;;;;;;;;;5073825;28;20381;-63
2023/05/23 13:13:27;;;;;;;4.85;3.58;;;;;;;;;;5058478;28;19931;-63
2023/05/23 13:15:54;;;;;;;4.22;3.03;;;;;;;;;;5058216;28;20053;-63
2023/05/23 13:18:21;;;;;;;3.58;3.10;;;;;;;;;;5064727;28;20083;-63
2023/05/23 13:20:47;;;;;;;6.50;3.28;;;;;;;;;;5066603;28;20052;-63
2023/05/23 13:23:14;;;;;;;4.22;2.90;;;;;;;;;;5056580;28;20183;-63
2023/05/23 13:25:40;;;;;;;3.55;2.88;;;;;;;;;;5052948;28;20487;-64
2023/05/23 13:28:07;;;;;;;3.53;2.80;;;;;;;;;;5070910;28;20052;-63
2023/05/23 13:30:33;;;;;;;6.82;3.25;;;;;;;;;;5072651;28;20102;-63
2023/05/23 13:33:00;;;;;;;3.95;3.17;;;;;;;;;;5072860;28;20109;-63
2023/05/23 13:35:26;;;;;;;4.93;2.90;;;;;;;;;;5072894;28;20083;-64
2023/05/23 13:37:53;;;;;;;4.53;2.95;;;;;;;;;;5072743;28;20045;-63
2023/05/23 13:40:20;;;;;;;3.42;2.60;;;;;;;;;;5060364;28;20094;-63
2023/05/23 13:42:47;;;;;;;3.97;3.17;;;;;;;;;;5069697;28;20048;-63
2023/05/23 13:45:14;;;;;;;5.22;3.17;;;;;;;;;;5071262;28;20101;-63
2023/05/23 13:47:40;;;;;;;4.28;3.30;;;;;;;;;;5071905;28;20057;-63
2023/05/23 13:50:07;;;;;;;4.07;3.00;;;;;;;;;;5072118;28;20075;-63
2023/05/23 13:52:34;;;;;;;3.90;3.20;;;;;;;;;;5071758;28;20048;-63
2023/05/23 13:55:01;;;;;;;4.68;3.05;;;;;;;;;;5055488;28;20052;-62
2023/05/23 13:57:28;;;;;;;4.90;3.10;;;;;;;;;;5064605;28;20117;-63
2023/05/23 13:59:54;;;;;;;5.22;3.17;;;;;;;;;;5070083;28;20117;-62
2023/05/23 14:02:21;;;;;;;5.45;3.15;;;;;;;;;;5051658;28;20436;-62
2023/05/23 14:04:48;;;;;;;4.40;3.22;;;;;;;;;;5051748;28;20556;-62
2023/05/23 14:07:17;;;;;;;5.53;3.47;;;;;;;;;;5052265;28;20049;-62
2023/05/23 14:09:43;;;;;;;5.78;3.70;;;;;;;;;;5052253;28;20102;-63
2023/05/23 14:12:10;;;;;;;3.40;3.10;;;;;;;;;;5051832;28;20045;-62
2023/05/23 14:14:36;;;;;;;6.07;3.70;;;;;;;;;;5057821;28;20090;-63
2023/05/23 14:17:02;;;;;;;4.53;3.08;;;;;;;;;;5065289;28;20493;-62
2023/05/23 14:19:29;;;;;;;4.57;3.30;;;;;;;;;;5071361;28;20185;-62
2023/05/23 14:21:56;;;;;;;4.15;3.45;;;;;;;;;;5071682;28;20127;-62
2023/05/23 14:24:22;;;;;;;5.22;4.03;;;;;;;;;;5071868;28;20487;-62
2023/05/23 14:26:49;;;;;;;8.02;3.80;;;;;;;;;;5071854;28;20045;-63
2023/05/23 14:29:15;;;;;;;4.53;3.42;;;;;;;;;;5071845;28;20491;-63
2023/05/23 14:31:41;;;;;;;5.53;3.95;;;;;;;;;;5071713;28;20102;-63
2023/05/23 14:34:08;;;;;;;4.72;3.58;;;;;;;;;;5072124;28;20044;-62
2023/05/23 14:36:35;;;;;;;6.70;4.03;;;;;;;;;;5071870;28;20048;-63
2023/05/23 14:39:04;;;;;;;5.75;3.40;;;;;;;;;;5071541;28;20044;-63
2023/05/23 14:41:30;;;;;;;12.23;3.92;;;;;;;;;;5071910;28;20041;-62
2023/05/23 14:43:57;;;;;;;8.65;3.85;;;;;;;;;;5071876;28;20735;-63
2023/05/23 14:46:23;;;;;;;6.20;4.68;;;;;;;;;;5071291;28;20045;-63